Airfield :
LOGIN :

Register | Disclaimer

   EN    FR    IT 

 










Legend :    VFR   Marginal VFR   IFR   Intensive IFR   Very Intensive IFR
Visi :
Ceiling :
>= 8 km
>= 3000ft
5 to 8 km
1000 to 3000 ft
1500m to 5 km
500 to 1000 ft
800 to 1500m
200 to 500 ft
< 800m
< 200 ft
Symbols :   Thunderstorms  Fog  Heavy snow  Heavy precipitations  Wind > 20 kt
SIGMETs :     Misc.  Thunderstorms  Icing  Turbulence  Mountain Waves  Volcanic Ashes






- Airport Elevation : 36 ft
- IATA code : LTQ


LFAT - Le Touquet

CURRENT METAR :
  • 261400Z AUTO 26011KT 220V300 9999 FEW012 17/11 Q1014 NOSIG

EXPIRED METARs :
  • 261330Z AUTO 26010KT 210V300 9999 FEW011 17/12 Q1014 NOSIG
  • 261300Z AUTO 27011KT 240V310 9999 SCT010 17/13 Q1014 NOSIG
  • 261230Z AUTO 25010KT 230V300 9999 BKN009 17/13 Q1014 BECMG SCT020 BKN030
  • 261200Z AUTO 26012KT 210V300 9999 OVC008 16/13 Q1014 TEMPO 4000 -SHRA SCT012 BKN020TCU
  • 261130Z AUTO 27010KT 230V310 9999 BKN009 BKN020 BKN027 17/13 Q1014 TEMPO 4000 -SHRA SCT012 BKN020TCU
  • 261100Z AUTO 25011KT 210V280 9999 BKN009 BKN054 BKN088 17/14 Q1013 TEMPO 4000 -SHRA SCT012 BKN020TCU
  • 261030Z AUTO 24013KT 210V270 9999 BKN013 BKN058 17/14 Q1013 TEMPO 4000 -SHRA SCT012 BKN020TCU
  • 261000Z AUTO 24010KT 210V280 9999 BKN018/// ///CB 18/13 Q1013 TEMPO 4000 -SHRA
  • 260930Z AUTO 23010KT 200V260 9999 SCT021 BKN028 BKN034 18/13 Q1013 TEMPO 4000 -SHRA SCT012 BKN020TCU

TAF TAF LFAT
Valid from the 26 at 12:00 until the 26 at 21:00 UTC


261100Z 2612/2621 24010KT 9999 SCT020 BKN030
TEMPO 2612/2613 4000 -SHRA SCT012 BKN020TCU
ATIS : +33 3 21 06 62 84



MET'MAP, your aeronautical weather chart ! - Copyright ORBIFLY December 2007 - Disclaimer

ORBIFLY MET'MAP TEAM :

Programming & Development : Alexandra Zaïnal
Original concept : Baudouin d'Aumeries
Technical & hardware support : Manuel Goepfert
Assistance : Marc-Olivier Méhu




SOURCES & CREDITS :

   NOAA